createdAt,value
2023-01-01T00:01:55.877Z,53.99
2023-01-01T00:05:01.933Z,54.05
2023-01-01T00:08:08.962Z,53.85
2023-01-01T00:11:14.972Z,53.83
2023-01-01T00:14:21.583Z,53.71
2023-01-01T00:17:32.111Z,53.57
2023-01-01T00:20:38.731Z,53.30
2023-01-01T00:23:45.377Z,53.42
2023-01-01T00:26:52.000Z,53.17
2023-01-01T00:29:58.327Z,53.04
2023-01-01T00:33:07.630Z,52.83
2023-01-01T00:36:17.452Z,52.90
2023-01-01T00:39:24.514Z,52.72
2023-01-01T00:42:30.448Z,52.43
2023-01-01T00:45:37.363Z,52.52
2023-01-01T00:48:46.209Z,53.12
2023-01-01T00:51:53.026Z,52.89
2023-01-01T00:54:58.857Z,52.76
2023-01-01T00:58:05.413Z,53.12
2023-01-01T01:01:11.717Z,53.22
2023-01-01T01:04:21.257Z,52.92
2023-01-01T01:07:27.085Z,52.86
2023-01-01T01:10:33.722Z,52.90
2023-01-01T01:13:41.620Z,53.17
2023-01-01T01:16:48.914Z,53.14
2023-01-01T01:19:57.319Z,52.98
2023-01-01T01:23:03.930Z,52.73
2023-01-01T01:26:15.393Z,52.51
2023-01-01T01:29:22.103Z,52.37
2023-01-01T01:32:28.304Z,52.33
2023-01-01T01:35:37.595Z,52.24
2023-01-01T01:38:44.174Z,52.26
2023-01-01T01:41:50.733Z,52.08
2023-01-01T01:45:01.251Z,52.38
2023-01-01T01:48:08.660Z,52.28
2023-01-01T01:51:25.864Z,51.70
2023-01-01T01:54:33.834Z,51.73
2023-01-01T01:57:43.708Z,51.70
2023-01-01T02:00:52.005Z,51.82
2023-01-01T02:04:04.382Z,52.07
2023-01-01T02:07:16.599Z,51.75
2023-01-01T02:10:22.862Z,52.06
2023-01-01T02:13:30.636Z,52.29
2023-01-01T02:16:46.095Z,52.25
2023-01-01T02:20:21.201Z,52.58
2023-01-01T02:24:21.542Z,52.35
2023-01-01T02:27:49.160Z,52.72
2023-01-01T02:31:02.917Z,52.20
2023-01-01T02:34:19.557Z,52.43
2023-01-01T02:37:30.560Z,52.46
2023-01-01T02:40:45.626Z,52.57
2023-01-01T02:43:52.415Z,53.01
2023-01-01T02:47:09.911Z,52.72
2023-01-01T02:50:23.603Z,52.51
2023-01-01T02:53:39.062Z,52.58
2023-01-01T02:56:54.835Z,52.76
2023-01-01T03:00:28.322Z,52.36
2023-01-01T03:03:50.159Z,52.96
2023-01-01T03:07:13.272Z,52.56
2023-01-01T03:10:27.431Z,52.58
2023-01-01T03:13:48.865Z,53.36
2023-01-01T03:17:06.938Z,53.31
2023-01-01T03:20:24.902Z,53.86
2023-01-01T03:23:44.505Z,53.64
2023-01-01T03:27:02.231Z,53.58
2023-01-01T03:30:15.978Z,53.79
2023-01-01T03:33:30.824Z,53.58
2023-01-01T03:36:49.550Z,52.93
2023-01-01T03:40:02.321Z,53.65
2023-01-01T03:43:17.118Z,53.65
2023-01-01T03:46:33.881Z,53.94
2023-01-01T03:49:43.823Z,53.34
2023-01-01T03:53:10.513Z,54.15
2023-01-01T03:56:31.280Z,53.61
2023-01-01T03:59:51.322Z,53.43
2023-01-01T04:03:05.019Z,53.68
2023-01-01T04:06:14.671Z,53.76
2023-01-01T04:09:33.157Z,54.11
2023-01-01T04:12:39.057Z,53.89
2023-01-01T04:15:46.145Z,52.12
2023-01-01T04:18:51.987Z,52.14
2023-01-01T04:21:58.818Z,51.71
2023-01-01T04:25:08.499Z,51.08
2023-01-01T04:28:15.061Z,51.30
2023-01-01T04:31:20.832Z,51.00
2023-01-01T04:34:28.055Z,50.39
2023-01-01T04:37:33.925Z,50.26
2023-01-01T04:40:43.263Z,50.32
2023-01-01T04:43:52.433Z,50.36
2023-01-01T04:47:00.298Z,50.62
2023-01-01T04:50:06.479Z,50.55
2023-01-01T04:53:13.151Z,50.77
2023-01-01T04:56:24.868Z,50.86
2023-01-01T04:59:35.170Z,51.09
2023-01-01T05:02:40.999Z,51.37
2023-01-01T05:05:51.455Z,50.71
2023-01-01T05:09:01.341Z,50.34
2023-01-01T05:12:11.031Z,50.54
2023-01-01T05:15:17.047Z,50.50
2023-01-01T05:18:23.735Z,50.50
2023-01-01T05:21:34.461Z,50.56
2023-01-01T05:24:41.220Z,50.77
2023-01-01T05:27:49.568Z,50.37
2023-01-01T05:30:57.166Z,50.46
2023-01-01T05:37:11.062Z,51.31
2023-01-01T05:40:17.010Z,50.91
2023-01-01T05:43:26.371Z,50.95
2023-01-01T05:46:32.736Z,50.76
2023-01-01T05:49:39.868Z,50.84
2023-01-01T05:52:45.849Z,51.49
2023-01-01T05:55:57.007Z,51.11
2023-01-01T05:59:08.573Z,51.07
2023-01-01T06:02:15.507Z,50.69
2023-01-01T06:05:21.415Z,50.88
2023-01-01T06:08:28.089Z,50.56
2023-01-01T06:11:35.296Z,50.82
2023-01-01T06:14:44.461Z,50.56
2023-01-01T06:17:50.402Z,50.80
2023-01-01T06:20:56.989Z,50.75
2023-01-01T06:24:04.009Z,51.03
2023-01-01T06:27:10.818Z,51.27
2023-01-01T06:30:19.407Z,51.08
2023-01-01T06:33:25.977Z,51.18
2023-01-01T06:36:31.968Z,51.59
2023-01-01T06:39:38.742Z,51.60
2023-01-01T06:42:44.691Z,51.48
2023-01-01T06:46:04.199Z,51.52
2023-01-01T06:49:14.503Z,51.58
2023-01-01T06:52:21.121Z,51.60
2023-01-01T06:55:27.078Z,51.53
2023-01-01T06:58:34.376Z,51.52
2023-01-01T07:01:44.005Z,51.31
2023-01-01T07:04:51.881Z,51.96
2023-01-01T07:07:57.686Z,51.65
2023-01-01T07:11:04.549Z,51.68
2023-01-01T07:14:10.441Z,51.45
2023-01-01T07:17:19.708Z,51.61
2023-01-01T07:20:25.624Z,51.73
2023-01-01T07:23:36.611Z,50.99
2023-01-01T07:26:44.860Z,51.35
2023-01-01T07:29:51.480Z,50.95
2023-01-01T07:33:02.799Z,50.80
2023-01-01T07:36:11.586Z,50.47
2023-01-01T07:39:17.463Z,50.41
2023-01-01T07:42:24.181Z,50.58
2023-01-01T07:45:30.538Z,50.93
2023-01-01T07:48:40.310Z,50.61
2023-01-01T07:51:46.298Z,50.50
2023-01-01T07:54:52.964Z,50.44
2023-01-01T07:57:58.789Z,50.19
2023-01-01T08:01:05.430Z,49.83
2023-01-01T08:04:13.769Z,49.90
2023-01-01T08:07:20.410Z,49.83
2023-01-01T08:10:26.555Z,49.67
2023-01-01T08:13:33.271Z,49.85
2023-01-01T08:16:39.040Z,49.71
2023-01-01T08:19:49.522Z,49.87
2023-01-01T08:22:59.023Z,49.20
2023-01-01T08:26:08.272Z,49.10
2023-01-01T08:29:14.989Z,48.62
2023-01-01T08:32:21.600Z,48.40
2023-01-01T08:35:30.026Z,48.55
2023-01-01T08:38:36.657Z,48.69
2023-01-01T08:41:42.564Z,48.84
2023-01-01T08:44:49.500Z,49.26
2023-01-01T08:47:55.205Z,49.29
2023-01-01T08:51:05.281Z,49.34
2023-01-01T08:54:11.558Z,49.28
2023-01-01T08:57:18.509Z,49.30
2023-01-01T09:00:24.834Z,49.52
2023-01-01T09:03:31.653Z,49.34
2023-01-01T09:06:40.039Z,49.42
2023-01-01T09:09:46.571Z,49.32
2023-01-01T09:12:52.392Z,49.12
2023-01-01T09:15:59.913Z,49.00
2023-01-01T09:19:05.832Z,48.48
2023-01-01T09:22:16.431Z,48.42
2023-01-01T09:25:22.573Z,48.33
2023-01-01T09:28:29.737Z,48.11
2023-01-01T09:31:35.524Z,47.98
2023-01-01T09:34:44.994Z,47.86
2023-01-01T09:37:55.912Z,47.48
2023-01-01T09:41:21.220Z,47.69
2023-01-01T09:44:59.086Z,47.35
2023-01-01T09:48:14.095Z,47.22
2023-01-01T09:51:25.554Z,47.08
2023-01-01T09:54:43.758Z,46.84
2023-01-01T09:57:49.644Z,46.63
2023-01-01T10:01:04.595Z,46.37
2023-01-01T10:04:39.938Z,46.75
2023-01-01T10:07:59.339Z,46.71
2023-01-01T10:11:23.073Z,46.18
2023-01-01T10:14:39.130Z,46.33
2023-01-01T10:17:51.996Z,46.00
2023-01-01T10:21:10.421Z,46.31
2023-01-01T10:24:40.470Z,46.40
2023-01-01T10:27:59.510Z,46.11
2023-01-01T10:31:19.550Z,46.18
2023-01-01T10:34:32.373Z,45.32
2023-01-01T10:37:42.743Z,44.47
2023-01-01T10:40:49.542Z,44.36
2023-01-01T10:43:58.054Z,44.21
2023-01-01T10:47:32.168Z,43.84
2023-01-01T10:50:48.558Z,43.43
2023-01-01T10:53:56.469Z,42.84
2023-01-01T10:57:03.915Z,42.97
2023-01-01T11:00:27.289Z,41.88
2023-01-01T11:03:33.724Z,41.84
2023-01-01T11:06:44.123Z,41.20
2023-01-01T11:10:03.123Z,41.01
2023-01-01T11:13:23.399Z,40.81
2023-01-01T11:16:33.679Z,41.05
2023-01-01T11:19:50.738Z,40.47
2023-01-01T11:22:58.844Z,40.15
2023-01-01T11:26:12.695Z,40.18
2023-01-01T11:29:29.247Z,40.50
2023-01-01T11:32:40.463Z,40.08
2023-01-01T11:35:57.601Z,40.02
2023-01-01T11:39:25.184Z,39.96
2023-01-01T11:42:36.440Z,40.01
2023-01-01T11:45:47.022Z,39.40
2023-01-01T11:48:57.817Z,39.30
2023-01-01T11:52:24.636Z,38.43
2023-01-01T11:55:45.097Z,37.85
2023-01-01T11:59:00.190Z,37.11
2023-01-01T12:02:14.646Z,35.85
2023-01-01T12:05:36.737Z,35.65
2023-01-01T12:08:54.106Z,35.61
2023-01-01T12:12:11.299Z,36.32
2023-01-01T12:15:27.698Z,36.83
2023-01-01T12:18:47.608Z,37.33
2023-01-01T12:22:03.134Z,38.19
2023-01-01T12:25:19.379Z,38.59
2023-01-01T12:28:43.501Z,39.15
2023-01-01T12:32:07.843Z,39.86
2023-01-01T12:35:36.977Z,39.96
2023-01-01T12:39:41.107Z,40.54
2023-01-01T12:43:05.358Z,41.13
2023-01-01T12:46:43.829Z,41.20
2023-01-01T12:50:11.317Z,41.91
2023-01-01T12:53:35.968Z,41.66
2023-01-01T12:56:56.391Z,41.78
2023-01-01T13:00:16.483Z,42.29
2023-01-01T13:03:31.177Z,42.24
2023-01-01T13:06:47.032Z,42.23
2023-01-01T13:09:54.010Z,42.25
2023-01-01T13:13:05.838Z,42.81
2023-01-01T13:16:16.012Z,42.19
2023-01-01T13:19:37.685Z,42.22
2023-01-01T13:22:48.328Z,42.47
2023-01-01T13:26:41.145Z,42.59
2023-01-01T13:29:51.454Z,42.57
2023-01-01T13:33:30.056Z,42.54
2023-01-01T13:36:36.492Z,42.50
2023-01-01T13:39:56.687Z,42.95
2023-01-01T13:43:36.903Z,42.93
2023-01-01T13:47:14.596Z,42.99
2023-01-01T13:50:36.657Z,43.01
2023-01-01T13:54:26.701Z,43.35
2023-01-01T13:58:10.281Z,43.06
2023-01-01T14:02:00.922Z,43.58
2023-01-01T14:05:21.315Z,43.62
2023-01-01T14:08:37.955Z,43.72
2023-01-01T14:11:45.041Z,43.91
2023-01-01T14:14:51.783Z,44.35
2023-01-01T14:18:04.238Z,44.23
2023-01-01T14:21:16.483Z,44.36
2023-01-01T14:24:27.003Z,45.17
2023-01-01T14:27:34.054Z,44.60
2023-01-01T14:30:40.348Z,44.70
2023-01-01T14:33:51.061Z,44.69
2023-01-01T14:37:01.177Z,45.26
2023-01-01T14:40:31.344Z,45.58
2023-01-01T14:43:41.815Z,45.94
2023-01-01T14:46:52.800Z,46.50
2023-01-01T14:50:14.458Z,46.96
2023-01-01T14:53:35.201Z,47.35
2023-01-01T14:56:41.949Z,47.62
2023-01-01T14:59:54.795Z,47.84
2023-01-01T15:03:10.727Z,48.27
2023-01-01T15:06:21.337Z,48.66
2023-01-01T15:09:29.089Z,48.77
2023-01-01T15:12:39.569Z,49.12
2023-01-01T15:15:48.870Z,49.33
2023-01-01T15:18:58.052Z,49.62
2023-01-01T15:22:14.774Z,49.88
2023-01-01T15:25:23.611Z,50.24
2023-01-01T15:28:29.707Z,50.41
2023-01-01T15:31:45.468Z,50.46
2023-01-01T15:34:55.654Z,50.55
2023-01-01T15:38:14.952Z,50.65
2023-01-01T15:41:29.663Z,50.56
2023-01-01T15:44:38.173Z,50.50
2023-01-01T15:47:44.841Z,50.64
2023-01-01T15:51:18.359Z,50.64
2023-01-01T15:54:28.323Z,50.60
2023-01-01T15:57:35.076Z,50.71
2023-01-01T16:00:44.775Z,50.82
2023-01-01T16:04:03.642Z,50.76
2023-01-01T16:07:21.051Z,50.84
2023-01-01T16:10:31.966Z,51.11
2023-01-01T16:13:38.237Z,50.77
2023-01-01T16:16:53.495Z,50.86
2023-01-01T16:19:59.414Z,51.10
2023-01-01T16:23:06.871Z,50.91
2023-01-01T16:26:15.622Z,50.69
2023-01-01T16:29:22.339Z,50.70
2023-01-01T16:32:28.222Z,50.51
2023-01-01T16:35:34.867Z,51.14
2023-01-01T16:38:40.816Z,51.43
2023-01-01T16:41:50.086Z,51.79
2023-01-01T16:44:56.062Z,52.18
2023-01-01T16:48:05.892Z,52.39
2023-01-01T16:51:22.775Z,52.84
2023-01-01T16:54:29.367Z,53.18
2023-01-01T16:57:39.775Z,53.61
2023-01-01T17:00:46.543Z,53.73
2023-01-01T17:03:53.174Z,53.94
2023-01-01T17:06:59.836Z,54.25
2023-01-01T17:10:07.764Z,54.24
2023-01-01T17:13:17.291Z,54.45
2023-01-01T17:16:29.086Z,55.03
2023-01-01T17:19:38.247Z,55.45
2023-01-01T17:22:44.103Z,55.93
2023-01-01T17:25:50.924Z,56.13
2023-01-01T17:29:00.909Z,55.94
2023-01-01T17:32:08.687Z,56.38
2023-01-01T17:35:14.485Z,56.47
2023-01-01T17:38:21.257Z,56.58
2023-01-01T17:41:27.754Z,56.33
2023-01-01T17:44:37.777Z,56.52
2023-01-01T17:47:43.585Z,56.23
2023-01-01T17:50:50.432Z,56.42
2023-01-01T17:53:58.144Z,56.35
2023-01-01T17:57:06.688Z,56.27
2023-01-01T18:00:17.420Z,56.46
2023-01-01T18:03:24.585Z,56.44
2023-01-01T18:06:31.414Z,56.13
2023-01-01T18:09:39.039Z,56.24
2023-01-01T18:12:45.026Z,56.27
2023-01-01T18:15:54.708Z,56.41
2023-01-01T18:19:01.214Z,56.14
2023-01-01T18:22:08.868Z,55.84
2023-01-01T18:25:15.578Z,55.56
2023-01-01T18:28:22.548Z,55.82
2023-01-01T18:31:34.313Z,56.16
2023-01-01T18:34:41.169Z,56.35
2023-01-01T18:37:47.125Z,55.87
2023-01-01T18:41:19.583Z,55.96
2023-01-01T18:44:29.214Z,55.82
2023-01-01T18:47:38.720Z,55.25
2023-01-01T18:50:44.711Z,55.24
2023-01-01T18:53:51.866Z,55.84
2023-01-01T18:57:15.210Z,55.63
2023-01-01T19:00:27.232Z,55.74
2023-01-01T19:03:41.057Z,55.73
2023-01-01T19:06:49.806Z,55.24
2023-01-01T19:09:58.994Z,55.23
2023-01-01T19:13:23.934Z,55.42
2023-01-01T19:16:35.389Z,55.12
2023-01-01T19:19:47.757Z,55.48
2023-01-01T19:22:54.840Z,55.93
2023-01-01T19:26:08.624Z,56.35
2023-01-01T19:29:21.145Z,56.50
2023-01-01T19:32:28.189Z,56.48
2023-01-01T19:35:37.179Z,56.29
2023-01-01T19:38:44.508Z,56.16
2023-01-01T19:41:50.849Z,56.71
2023-01-01T19:44:57.695Z,57.32
2023-01-01T19:48:04.884Z,57.71
2023-01-01T19:51:14.379Z,57.88
2023-01-01T19:54:21.577Z,57.92
2023-01-01T19:57:28.463Z,57.91
2023-01-01T20:00:35.017Z,58.55
2023-01-01T20:03:57.878Z,58.85
2023-01-01T20:07:06.933Z,58.95
2023-01-01T20:10:14.115Z,58.98
2023-01-01T20:13:21.008Z,58.86
2023-01-01T20:16:28.047Z,58.97
2023-01-01T20:19:33.897Z,58.68
2023-01-01T20:22:43.597Z,58.92
2023-01-01T20:25:49.887Z,58.86
2023-01-01T20:29:09.195Z,58.99
2023-01-01T20:32:15.882Z,58.94
2023-01-01T20:35:43.129Z,58.80
2023-01-01T20:38:49.247Z,58.55
2023-01-01T20:41:56.151Z,58.43
2023-01-01T20:45:02.001Z,58.52
2023-01-01T20:48:13.425Z,58.44
2023-01-01T20:51:22.002Z,58.90
2023-01-01T20:54:31.834Z,59.01
2023-01-01T20:57:37.977Z,58.79
2023-01-01T21:00:44.835Z,58.57
2023-01-01T21:03:50.696Z,58.04
2023-01-01T21:06:57.252Z,58.28
2023-01-01T21:10:05.702Z,58.60
2023-01-01T21:13:12.580Z,58.85
2023-01-01T21:16:23.387Z,59.13
2023-01-01T21:19:31.770Z,59.20
2023-01-01T21:22:39.478Z,59.51
2023-01-01T21:25:53.269Z,59.30
2023-01-01T21:29:08.062Z,59.10
2023-01-01T21:32:24.900Z,59.30
2023-01-01T21:35:38.463Z,59.51
2023-01-01T21:38:45.782Z,59.38
2023-01-01T21:41:55.302Z,59.53
2023-01-01T21:45:05.124Z,59.65
2023-01-01T21:48:20.328Z,59.70
2023-01-01T21:51:30.703Z,59.58
2023-01-01T21:54:41.059Z,59.54
2023-01-01T21:58:13.971Z,59.43
2023-01-01T22:01:28.934Z,59.09
2023-01-01T22:04:43.153Z,58.94
2023-01-01T22:07:59.266Z,58.89
2023-01-01T22:11:07.881Z,59.01
2023-01-01T22:14:20.803Z,59.37
2023-01-01T22:17:36.813Z,59.45
2023-01-01T22:20:48.544Z,59.33
2023-01-01T22:24:02.802Z,59.47
2023-01-01T22:27:30.560Z,59.51
2023-01-01T22:30:47.636Z,59.66
2023-01-01T22:34:00.361Z,59.57
2023-01-01T22:37:18.149Z,59.54
2023-01-01T22:40:33.227Z,59.37
2023-01-01T22:43:45.547Z,59.41
2023-01-01T22:46:53.986Z,59.23
2023-01-01T22:50:04.448Z,58.74
2023-01-01T22:53:10.185Z,59.19
2023-01-01T22:56:17.571Z,59.50
2023-01-01T22:59:23.506Z,59.63
2023-01-01T23:02:32.820Z,59.74
2023-01-01T23:05:38.916Z,59.60
2023-01-01T23:08:45.765Z,59.84
2023-01-01T23:11:51.833Z,59.83
2023-01-01T23:15:10.778Z,59.92
2023-01-01T23:18:19.253Z,59.92
2023-01-01T23:21:28.100Z,60.14
2023-01-01T23:24:36.020Z,60.09
2023-01-01T23:27:44.181Z,59.75
2023-01-01T23:30:52.121Z,59.59
2023-01-01T23:34:02.815Z,59.40
2023-01-01T23:37:10.035Z,58.77
2023-01-01T23:40:16.961Z,58.52
2023-01-01T23:43:23.019Z,58.86
2023-01-01T23:46:30.196Z,59.20
2023-01-01T23:49:39.447Z,59.99
2023-01-01T23:52:46.351Z,60.10
2023-01-01T23:55:52.943Z,60.45
2023-01-01T23:58:59.813Z,60.58
